Time;durP1;ratioP1;P1;durP2;ratioP2;P2;SDS_P1;SDS_P2;PMS_P1;PMS_P2;Temp;Humidity;BMP_temperature;BMP_pressure;BME280_temperature;BME280_humidity;BME280_pressure;Samples;Min_cycle;Max_cycle;Signal;HPM_P1;HPM_P2
2022/11/27 00:01:58;;;;;;;4.15;3.25;;;5.20;90.00;;;;;;5058553;28;20044;-56
2022/11/27 00:04:23;;;;;;;3.55;3.08;;;5.20;90.00;;;;;;5058830;28;20049;-56
2022/11/27 00:06:49;;;;;;;4.38;3.38;;;5.10;90.00;;;;;;5058760;28;20017;-56
2022/11/27 00:09:15;;;;;;;3.72;3.20;;;5.20;90.10;;;;;;5058407;28;20068;-59
2022/11/27 00:11:41;;;;;;;3.83;3.08;;;5.20;90.10;;;;;;5058311;28;20041;-57
2022/11/27 00:14:11;;;;;;;3.92;3.10;;;5.20;90.10;;;;;;5057334;28;20052;-56
2022/11/27 00:16:37;;;;;;;3.90;3.17;;;5.20;90.00;;;;;;5058979;28;20097;-57
2022/11/27 00:19:03;;;;;;;4.50;3.65;;;5.20;90.00;;;;;;5050835;28;20033;-55
2022/11/27 00:21:32;;;;;;;4.28;3.20;;;5.20;90.10;;;;;;5058948;28;20013;-56
2022/11/27 00:23:59;;;;;;;3.85;3.22;;;5.20;90.10;;;;;;5058294;28;20002;-56
2022/11/27 00:26:26;;;;;;;3.47;3.17;;;5.20;90.00;;;;;;5058080;28;20014;-56
2022/11/27 00:28:52;;;;;;;6.07;3.90;;;5.20;90.10;;;;;;5058528;28;20009;-57
2022/11/27 00:31:28;;;;;;;3.88;3.03;;;5.10;90.10;;;;;;5058581;28;20049;-53
2022/11/27 00:34:02;;;;;;;4.75;3.60;;;5.20;90.00;;;;;;5058458;28;20092;-57
2022/11/27 00:36:30;;;;;;;4.65;3.80;;;5.20;89.90;;;;;;5057459;28;20109;-53
2022/11/27 00:38:56;;;;;;;4.18;3.33;;;5.10;89.90;;;;;;5054863;28;20020;-56
2022/11/27 00:41:24;;;;;;;4.30;3.40;;;5.10;90.00;;;;;;5057309;28;20014;-56
2022/11/27 00:43:50;;;;;;;3.33;3.03;;;5.10;90.00;;;;;;5058047;28;20025;-57
2022/11/27 00:46:18;;;;;;;3.92;3.00;;;5.10;90.00;;;;;;5058236;28;20020;-56
2022/11/27 00:48:44;;;;;;;4.15;3.50;;;5.10;89.90;;;;;;5054912;28;20018;-56
2022/11/27 00:51:20;;;;;;;4.18;3.15;;;5.10;89.90;;;;;;5057555;28;20021;-56
2022/11/27 00:53:46;;;;;;;3.13;2.83;;;5.10;89.80;;;;;;5057947;28;20036;-57
2022/11/27 00:56:21;;;;;;;3.90;2.90;;;5.10;90.00;;;;;;5057886;28;20021;-56
2022/11/27 00:58:47;;;;;;;4.05;3.33;;;5.10;89.90;;;;;;5058223;28;20064;-55
2022/11/27 01:01:19;;;;;;;4.15;3.33;;;5.10;89.90;;;;;;5057215;28;20018;-56
2022/11/27 01:03:46;;;;;;;5.50;3.83;;;5.10;90.00;;;;;;5057595;28;20052;-57
2022/11/27 01:06:13;;;;;;;3.35;3.05;;;5.10;90.00;;;;;;5058089;28;20049;-57
2022/11/27 01:08:40;;;;;;;4.38;3.55;;;5.10;89.90;;;;;;5057885;28;20028;-57
2022/11/27 01:11:05;;;;;;;4.28;3.55;;;5.10;90.00;;;;;;5056807;28;20074;-56
2022/11/27 01:13:35;;;;;;;4.10;3.10;;;5.10;90.00;;;;;;5056721;28;20026;-56
2022/11/27 01:16:05;;;;;;;3.63;3.00;;;5.10;90.00;;;;;;5057828;28;20041;-56
2022/11/27 01:18:32;;;;;;;3.13;2.80;;;5.20;90.00;;;;;;5057793;28;20032;-56
2022/11/27 01:20:58;;;;;;;3.83;3.40;;;5.20;90.00;;;;;;5040856;28;20037;-57
2022/11/27 01:23:24;;;;;;;3.67;3.33;;;5.20;89.90;;;;;;5057410;28;20033;-56
2022/11/27 01:25:52;;;;;;;3.45;3.15;;;5.20;89.70;;;;;;5057013;28;20032;-56
2022/11/27 01:28:18;;;;;;;3.30;2.88;;;5.20;89.60;;;;;;5057782;28;20013;-57
2022/11/27 01:30:44;;;;;;;3.47;3.15;;;5.20;89.40;;;;;;5040229;28;20033;-55
2022/11/27 01:33:10;;;;;;;3.40;3.10;;;5.20;89.40;;;;;;5057145;28;20052;-55
2022/11/27 01:35:36;;;;;;;3.80;3.13;;;5.10;89.50;;;;;;5057333;28;20112;-57
2022/11/27 01:38:02;;;;;;;3.95;3.08;;;5.10;89.30;;;;;;5057200;28;20042;-56
2022/11/27 01:40:28;;;;;;;3.95;3.10;;;5.10;89.50;;;;;;5057607;28;20038;-56
2022/11/27 01:42:53;;;;;;;5.32;3.22;;;5.10;89.40;;;;;;5057592;28;20016;-55
2022/11/27 01:45:20;;;;;;;3.67;3.38;;;5.10;89.50;;;;;;5057147;28;20033;-58
2022/11/27 01:47:53;;;;;;;3.28;2.92;;;5.10;89.60;;;;;;5057415;28;20017;-55
2022/11/27 01:50:32;;;;;;;3.35;2.80;;;5.10;89.50;;;;;;5057123;28;20037;-56
2022/11/27 01:53:05;;;;;;;3.55;2.95;;;5.10;89.70;;;;;;5050712;28;20048;-56
2022/11/27 01:55:41;;;;;;;4.47;3.35;;;5.10;89.50;;;;;;5056942;28;20057;-53
2022/11/27 01:58:11;;;;;;;3.95;3.20;;;5.20;89.70;;;;;;5047058;28;20057;-55
2022/11/27 02:00:37;;;;;;;4.07;3.25;;;5.20;89.60;;;;;;5056511;28;20013;-56
2022/11/27 02:03:03;;;;;;;3.53;3.20;;;5.10;89.30;;;;;;5057780;28;20033;-56
2022/11/27 02:05:30;;;;;;;3.80;3.00;;;5.10;89.40;;;;;;5056444;28;20041;-57
2022/11/27 02:08:02;;;;;;;3.85;3.42;;;5.10;89.50;;;;;;5056712;28;20036;-56
2022/11/27 02:10:47;;;;;;;4.32;3.35;;;5.20;89.50;;;;;;5056429;28;20026;-56
2022/11/27 02:13:20;;;;;;;3.92;3.40;;;5.20;89.20;;;;;;5057354;28;20040;-58
2022/11/27 02:15:54;;;;;;;3.90;3.22;;;5.10;89.20;;;;;;5056816;28;20037;-55
2022/11/27 02:18:22;;;;;;;3.85;3.33;;;5.10;89.10;;;;;;5055643;28;20052;-54
2022/11/27 02:21:06;;;;;;;3.45;2.97;;;5.10;89.10;;;;;;5057594;28;20021;-58
2022/11/27 02:23:55;;;;;;;4.38;3.55;;;5.10;89.10;;;;;;5057607;28;20030;-53
2022/11/27 02:26:49;;;;;;;4.32;3.50;;;5.10;89.00;;;;;;5060163;28;20017;-57
2022/11/27 02:29:21;;;;;;;3.60;3.25;;;5.10;89.10;;;;;;5060758;28;20021;-57
2022/11/27 02:31:56;;;;;;;4.00;3.30;;;5.00;89.20;;;;;;5059628;28;20029;-55
2022/11/27 02:34:41;;;;;;;4.22;3.50;;;5.00;89.10;;;;;;5060650;28;20020;-58
2022/11/27 02:37:09;;;;;;;4.25;3.55;;;5.00;89.20;;;;;;5059584;28;20038;-57
2022/11/27 02:39:55;;;;;;;3.70;3.30;;;5.00;89.20;;;;;;5060097;28;20040;-57
2022/11/27 02:42:20;;;;;;;3.78;3.30;;;5.00;89.00;;;;;;5060128;28;20037;-57
2022/11/27 02:45:01;;;;;;;4.38;3.60;;;5.00;89.10;;;;;;5060303;28;20094;-56
2022/11/27 02:47:28;;;;;;;3.70;3.30;;;5.00;88.90;;;;;;5060143;28;20129;-56
2022/11/27 02:49:55;;;;;;;4.50;3.67;;;4.90;89.10;;;;;;5059381;28;20081;-56
2022/11/27 02:52:23;;;;;;;3.95;3.30;;;4.90;89.10;;;;;;5059701;28;20033;-55
2022/11/27 02:54:50;;;;;;;4.53;3.75;;;4.90;89.00;;;;;;5060024;28;20016;-55
2022/11/27 02:57:18;;;;;;;4.72;3.60;;;4.90;89.10;;;;;;5060322;28;20105;-57
2022/11/27 02:59:44;;;;;;;4.30;3.72;;;4.90;89.00;;;;;;5058289;28;20088;-55
2022/11/27 03:02:17;;;;;;;4.00;3.60;;;4.90;88.90;;;;;;5036765;28;20393;-58
2022/11/27 03:04:56;;;;;;;4.43;3.83;;;4.90;88.80;;;;;;5034584;28;20443;-58
2022/11/27 03:07:32;;;;;;;5.13;3.60;;;4.80;88.70;;;;;;5033161;28;20014;-57
2022/11/27 03:10:02;;;;;;;5.00;3.63;;;4.80;88.90;;;;;;5033594;28;20028;-58
2022/11/27 03:12:27;;;;;;;4.00;3.50;;;4.80;89.00;;;;;;5034030;28;20083;-58
2022/11/27 03:14:53;;;;;;;4.10;3.50;;;4.80;88.90;;;;;;5034094;28;20025;-58
2022/11/27 03:17:25;;;;;;;4.38;3.58;;;4.80;88.90;;;;;;5034532;28;20026;-58
2022/11/27 03:19:59;;;;;;;4.07;3.65;;;4.80;88.80;;;;;;5030965;28;20481;-57
2022/11/27 03:22:30;;;;;;;4.80;3.92;;;4.80;88.80;;;;;;5034517;28;20057;-58
2022/11/27 03:24:57;;;;;;;4.63;3.55;;;4.80;88.60;;;;;;5033710;28;20025;-57
2022/11/27 03:27:31;;;;;;;4.55;3.75;;;4.80;88.50;;;;;;5034098;28;20071;-57
2022/11/27 03:30:00;;;;;;;4.72;3.83;;;4.70;88.30;;;;;;5032613;28;20017;-58
2022/11/27 03:32:27;;;;;;;4.82;4.00;;;4.70;88.40;;;;;;5032825;28;20461;-57
2022/11/27 03:34:54;;;;;;;5.07;3.90;;;4.70;88.40;;;;;;5033094;28;20453;-58
2022/11/27 03:37:21;;;;;;;5.10;3.90;;;4.70;88.50;;;;;;5033801;28;20049;-58
2022/11/27 03:39:46;;;;;;;4.70;3.80;;;4.70;88.50;;;;;;5033451;28;20053;-57
2022/11/27 03:42:21;;;;;;;5.32;4.10;;;4.60;88.30;;;;;;5033041;28;20076;-58
2022/11/27 03:44:52;;;;;;;4.90;3.90;;;4.60;88.20;;;;;;5021011;28;20034;-58
2022/11/27 03:47:52;;;;;;;4.90;4.03;;;4.60;88.20;;;;;;5033871;28;20017;-58
2022/11/27 03:50:32;;;;;;;4.03;3.63;;;4.60;88.10;;;;;;5032775;28;20076;-58
2022/11/27 03:53:06;;;;;;;4.57;3.75;;;4.60;88.30;;;;;;5021593;28;20049;-58
2022/11/27 03:55:32;;;;;;;5.00;3.97;;;4.60;88.40;;;;;;5011370;28;20030;-58
2022/11/27 03:57:59;;;;;;;4.10;3.58;;;4.60;88.40;;;;;;5033192;28;20025;-57
2022/11/27 04:00:29;;;;;;;4.88;4.38;;;4.60;88.40;;;;;;5032210;28;20484;-56
2022/11/27 04:02:54;;;;;;;4.53;3.65;;;4.60;88.40;;;;;;5032907;28;20144;-58
2022/11/27 04:05:20;;;;;;;4.32;3.58;;;4.60;88.50;;;;;;5015100;28;20508;-57
2022/11/27 04:07:46;;;;;;;3.95;3.50;;;4.60;88.40;;;;;;5032731;28;20395;-58
2022/11/27 04:10:12;;;;;;;4.90;3.90;;;4.60;88.50;;;;;;5032711;28;20361;-59
2022/11/27 04:12:37;;;;;;;4.78;4.00;;;4.60;88.40;;;;;;5032425;28;20033;-57
2022/11/27 04:15:04;;;;;;;4.70;4.00;;;4.60;88.40;;;;;;5033021;28;20033;-58
2022/11/27 04:17:30;;;;;;;4.53;3.63;;;4.60;88.20;;;;;;5033129;28;20362;-57
2022/11/27 04:19:56;;;;;;;4.25;3.65;;;4.70;88.20;;;;;;5032796;28;20055;-58
2022/11/27 04:22:21;;;;;;;4.18;3.47;;;4.60;88.20;;;;;;5032604;28;20022;-57
2022/11/27 04:24:47;;;;;;;4.25;3.85;;;4.60;88.10;;;;;;5032639;28;20358;-57
2022/11/27 04:27:13;;;;;;;4.15;3.75;;;4.60;88.00;;;;;;5032943;28;20013;-58
2022/11/27 04:29:38;;;;;;;4.43;3.42;;;4.60;87.90;;;;;;5031926;28;20017;-57
2022/11/27 04:32:04;;;;;;;3.88;3.35;;;4.60;88.00;;;;;;5033311;28;20027;-59
2022/11/27 04:34:31;;;;;;;4.45;3.63;;;4.60;88.10;;;;;;5027700;28;20044;-57
2022/11/27 04:36:57;;;;;;;4.88;3.85;;;4.60;88.00;;;;;;5031407;28;20550;-58
2022/11/27 04:39:22;;;;;;;3.80;3.40;;;4.60;88.10;;;;;;5032622;28;20029;-57
2022/11/27 04:41:48;;;;;;;4.88;3.53;;;4.60;88.10;;;;;;5032780;28;20437;-58
2022/11/27 04:44:14;;;;;;;4.20;3.75;;;4.60;88.10;;;;;;5031781;28;20033;-57
2022/11/27 04:46:40;;;;;;;3.92;3.33;;;4.60;88.20;;;;;;5032023;28;20029;-58
2022/11/27 04:49:05;;;;;;;3.47;3.00;;;4.60;88.20;;;;;;5032407;28;20096;-58
2022/11/27 04:51:31;;;;;;;4.18;3.60;;;4.60;88.10;;;;;;5032630;28;20051;-58
2022/11/27 04:53:57;;;;;;;4.30;3.30;;;4.60;88.20;;;;;;5032855;28;20061;-57
2022/11/27 04:56:23;;;;;;;3.97;3.22;;;4.50;88.00;;;;;;5031895;28;20373;-58
2022/11/27 04:58:48;;;;;;;3.72;3.30;;;4.50;88.10;;;;;;5032133;28;20021;-58
2022/11/27 05:01:14;;;;;;;3.92;3.25;;;4.50;88.20;;;;;;5031091;28;20029;-58
2022/11/27 05:03:40;;;;;;;3.92;3.45;;;4.60;88.20;;;;;;5032192;28;20032;-58
2022/11/27 05:06:07;;;;;;;3.38;3.08;;;4.50;88.70;;;;;;5032129;28;20107;-57
2022/11/27 05:08:33;;;;;;;3.78;3.05;;;4.50;88.30;;;;;;5031245;28;20040;-58
2022/11/27 05:10:59;;;;;;;3.28;2.95;;;4.50;88.50;;;;;;5031701;28;20476;-58
2022/11/27 05:13:24;;;;;;;3.30;3.00;;;4.50;88.50;;;;;;5032120;28;20021;-58
2022/11/27 05:15:50;;;;;;;3.65;3.05;;;4.50;88.50;;;;;;5032196;28;20043;-58
2022/11/27 05:18:16;;;;;;;3.97;3.13;;;4.50;89.20;;;;;;5032032;28;20064;-58
2022/11/27 05:20:41;;;;;;;3.97;3.15;;;4.50;88.40;;;;;;5031534;28;20112;-58
2022/11/27 05:23:07;;;;;;;3.40;3.10;;;4.50;88.40;;;;;;5031904;28;20038;-57
2022/11/27 05:25:32;;;;;;;3.30;2.97;;;4.50;88.40;;;;;;5032019;28;20035;-58
2022/11/27 05:27:58;;;;;;;3.85;2.90;;;4.50;88.40;;;;;;5031955;28;20047;-58
2022/11/27 05:30:24;;;;;;;3.33;3.03;;;4.50;88.40;;;;;;5031501;28;20033;-58
2022/11/27 05:32:49;;;;;;;3.38;3.08;;;4.50;89.00;;;;;;5031050;28;20034;-58
2022/11/27 05:35:15;;;;;;;3.15;2.85;;;4.50;88.40;;;;;;5031668;28;20036;-58
2022/11/27 05:37:40;;;;;;;3.50;3.10;;;4.50;88.50;;;;;;5031934;28;20040;-59
2022/11/27 05:40:07;;;;;;;2.90;2.70;;;4.50;88.60;;;;;;5014275;28;20107;-58
2022/11/27 05:42:32;;;;;;;3.38;3.08;;;4.50;88.50;;;;;;5031202;28;20037;-60
2022/11/27 05:44:58;;;;;;;3.20;2.90;;;4.50;88.40;;;;;;5031831;28;20037;-59
2022/11/27 05:47:24;;;;;;;3.47;3.17;;;4.50;88.40;;;;;;5031746;28;20385;-59
2022/11/27 05:49:49;;;;;;;3.47;3.17;;;4.50;88.50;;;;;;5032038;28;20080;-58
2022/11/27 05:52:15;;;;;;;3.25;2.95;;;4.50;88.40;;;;;;5030501;28;20021;-59
2022/11/27 05:54:44;;;;;;;3.17;2.92;;;4.50;88.20;;;;;;5030954;28;20057;-58
2022/11/27 05:57:09;;;;;;;3.58;3.28;;;4.50;88.20;;;;;;5030283;28;20032;-59
2022/11/27 05:59:35;;;;;;;3.20;2.90;;;4.50;88.20;;;;;;5033281;28;20021;-58
2022/11/27 06:02:00;;;;;;;3.50;3.03;;;4.50;88.30;;;;;;5033758;28;20037;-58
2022/11/27 06:04:26;;;;;;;3.30;3.00;;;4.50;88.10;;;;;;5032767;28;20080;-58
2022/11/27 06:06:52;;;;;;;3.17;2.88;;;4.50;88.00;;;;;;5033914;28;20021;-58
2022/11/27 06:09:17;;;;;;;3.40;3.00;;;4.50;88.00;;;;;;5033603;28;20021;-58
2022/11/27 06:11:43;;;;;;;3.97;3.05;;;4.50;88.00;;;;;;5034145;28;20029;-59
2022/11/27 06:14:09;;;;;;;3.55;3.22;;;4.40;87.90;;;;;;5035304;28;20349;-59
2022/11/27 06:16:35;;;;;;;3.20;2.90;;;4.50;88.00;;;;;;5033587;28;20021;-58
2022/11/27 06:19:01;;;;;;;4.28;3.30;;;4.50;88.00;;;;;;5035161;28;20159;-58
2022/11/27 06:21:26;;;;;;;4.25;3.70;;;4.40;87.90;;;;;;5035147;28;20357;-59
2022/11/27 06:23:55;;;;;;;5.75;3.83;;;4.50;88.10;;;;;;5034325;28;20038;-59
2022/11/27 06:26:27;;;;;;;4.70;3.47;;;4.50;87.90;;;;;;5034891;28;20562;-58
2022/11/27 06:28:53;;;;;;;;;;;4.50;87.90;;;;;;5034515;28;20385;-59
2022/11/27 06:31:21;;;;;;;3.60;3.28;;;4.40;87.60;;;;;;5034339;28;19909;-59
2022/11/27 06:33:49;;;;;;;4.40;3.63;;;4.40;88.00;;;;;;5034454;28;20030;-59
2022/11/27 06:36:16;;;;;;;4.22;3.70;;;4.50;88.00;;;;;;5013594;28;20045;-59
2022/11/27 06:38:42;;;;;;;4.03;3.22;;;4.50;88.00;;;;;;5015377;28;20554;-59
2022/11/27 06:41:10;;;;;;;4.28;3.80;;;4.50;87.90;;;;;;5015198;28;20057;-57
2022/11/27 06:43:36;;;;;;;4.95;4.00;;;4.40;87.80;;;;;;5015135;28;20026;-59
2022/11/27 06:46:03;;;;;;;4.90;3.90;;;4.50;87.80;;;;;;5014202;28;20096;-59
2022/11/27 06:48:29;;;;;;;4.05;3.47;;;4.50;87.90;;;;;;5015031;28;20370;-58
2022/11/27 06:50:59;;;;;;;4.25;3.70;;;4.50;87.90;;;;;;5014880;28;20058;-59
2022/11/27 06:53:25;;;;;;;5.22;3.60;;;4.50;87.90;;;;;;5014919;28;20050;-59
2022/11/27 06:55:50;;;;;;;4.15;3.70;;;4.50;87.80;;;;;;5014015;28;20041;-59
2022/11/27 06:58:16;;;;;;;4.40;4.00;;;4.50;87.80;;;;;;5013772;28;20041;-59
2022/11/27 07:00:42;;;;;;;5.15;4.10;;;4.50;88.30;;;;;;5014417;28;20032;-59
2022/11/27 07:03:07;;;;;;;4.18;3.70;;;4.50;87.90;;;;;;5015150;28;20112;-59
2022/11/27 07:05:34;;;;;;;4.22;3.80;;;4.50;87.80;;;;;;5014164;28;20084;-58
2022/11/27 07:08:00;;;;;;;4.47;3.90;;;4.50;87.70;;;;;;5014547;28;20065;-58
2022/11/27 07:10:25;;;;;;;5.43;4.13;;;4.50;87.60;;;;;;5012512;28;20062;-58
2022/11/27 07:12:51;;;;;;;4.70;4.13;;;4.50;87.60;;;;;;5014459;28;20037;-58
2022/11/27 07:15:16;;;;;;;4.40;4.00;;;4.50;87.60;;;;;;5014432;28;20397;-59
2022/11/27 07:17:42;;;;;;;4.70;4.20;;;4.50;87.60;;;;;;5014292;28;20037;-59
2022/11/27 07:20:08;;;;;;;5.05;4.00;;;4.50;87.70;;;;;;5012673;28;20033;-59
2022/11/27 07:22:34;;;;;;;3.80;3.50;;;4.50;87.50;;;;;;5012253;28;20026;-59
2022/11/27 07:24:59;;;;;;;3.88;3.47;;;4.50;88.20;;;;;;5014088;28;20056;-58
2022/11/27 07:27:25;;;;;;;4.78;3.72;;;4.50;87.60;;;;;;5013298;28;20440;-59
2022/11/27 07:29:51;;;;;;;3.92;3.53;;;4.50;87.70;;;;;;5014371;28;20072;-58
2022/11/27 07:32:17;;;;;;;3.85;3.47;;;4.60;87.70;;;;;;5014264;28;20025;-58
2022/11/27 07:34:43;;;;;;;3.45;3.15;;;4.50;87.70;;;;;;5013336;28;20021;-58
2022/11/27 07:37:08;;;;;;;4.13;3.63;;;4.50;87.60;;;;;;5029453;28;20051;-59
2022/11/27 07:39:34;;;;;;;4.10;3.50;;;4.50;87.60;;;;;;5032852;28;20143;-58
2022/11/27 07:41:59;;;;;;;3.97;3.50;;;4.60;87.70;;;;;;5033004;28;20095;-59
2022/11/27 07:44:25;;;;;;;4.53;3.90;;;4.60;87.80;;;;;;5033259;28;20416;-58
2022/11/27 07:46:51;;;;;;;3.42;2.90;;;4.60;87.70;;;;;;5033633;28;20037;-58
2022/11/27 07:49:17;;;;;;;3.95;3.55;;;4.60;87.70;;;;;;5033460;28;20045;-59
2022/11/27 07:51:42;;;;;;;4.72;3.38;;;4.60;87.80;;;;;;5033624;28;20476;-57
2022/11/27 07:54:09;;;;;;;3.60;3.30;;;4.60;87.70;;;;;;5033017;28;20020;-58
2022/11/27 07:56:34;;;;;;;3.67;3.20;;;4.60;87.70;;;;;;5032268;28;20029;-59
2022/11/27 07:59:00;;;;;;;4.00;3.20;;;4.60;87.70;;;;;;5027362;28;20025;-58
2022/11/27 08:01:25;;;;;;;3.50;3.20;;;4.60;87.60;;;;;;5033492;28;20527;-59
2022/11/27 08:03:51;;;;;;;4.05;3.50;;;4.60;87.50;;;;;;5032281;28;20156;-59
2022/11/27 08:06:22;;;;;;;3.45;3.15;;;4.60;87.50;;;;;;5029412;28;20389;-59
2022/11/27 08:08:49;;;;;;;3.80;3.35;;;4.60;87.60;;;;;;5030935;28;20415;-59
2022/11/27 08:11:28;;;;;;;3.65;3.28;;;4.60;87.60;;;;;;5033109;28;20465;-56
2022/11/27 08:13:59;;;;;;;3.85;3.30;;;4.60;87.60;;;;;;5033279;28;20104;-58
2022/11/27 08:16:25;;;;;;;3.40;3.10;;;4.60;87.70;;;;;;5032499;28;20025;-58
2022/11/27 08:18:51;;;;;;;3.53;3.10;;;4.60;87.60;;;;;;5030753;28;20511;-59
2022/11/27 08:21:18;;;;;;;3.45;3.15;;;4.60;87.60;;;;;;5032304;28;20026;-59
2022/11/27 08:23:43;;;;;;;3.58;3.28;;;4.70;87.60;;;;;;5021076;28;20342;-58
2022/11/27 08:26:10;;;;;;;3.85;3.40;;;4.60;87.70;;;;;;5032569;28;20023;-59
2022/11/27 08:28:36;;;;;;;3.80;3.45;;;4.70;87.70;;;;;;5030096;28;20109;-58
2022/11/27 08:31:03;;;;;;;4.15;3.67;;;4.70;87.60;;;;;;5032638;28;20022;-59
2022/11/27 08:33:30;;;;;;;3.72;3.40;;;4.70;87.60;;;;;;5004043;28;20464;-58
2022/11/27 08:35:55;;;;;;;3.92;3.53;;;4.70;87.50;;;;;;5032363;28;20045;-58
2022/11/27 08:38:22;;;;;;;3.50;3.17;;;4.70;87.60;;;;;;5031211;28;20370;-57
2022/11/27 08:41:02;;;;;;;3.55;3.22;;;4.70;87.50;;;;;;5014724;28;20060;-59
2022/11/27 08:43:28;;;;;;;3.92;3.40;;;4.80;87.40;;;;;;5032903;28;20112;-59
2022/11/27 08:45:55;;;;;;;3.47;3.17;;;4.80;87.30;;;;;;5032613;28;20465;-58
2022/11/27 08:48:21;;;;;;;4.78;3.67;;;4.80;87.30;;;;;;5031960;28;20100;-59
2022/11/27 08:50:48;;;;;;;4.63;3.47;;;4.80;87.20;;;;;;5032520;28;20025;-59
2022/11/27 08:53:14;;;;;;;3.83;3.42;;;4.80;87.20;;;;;;5014903;28;20472;-58
2022/11/27 08:55:40;;;;;;;4.55;3.67;;;4.80;87.20;;;;;;5029229;28;20085;-59
2022/11/27 08:58:06;;;;;;;4.50;3.83;;;4.80;87.20;;;;;;5032333;28;20037;-57
2022/11/27 09:00:33;;;;;;;3.92;3.30;;;4.80;87.10;;;;;;5031954;28;20048;-59
2022/11/27 09:02:59;;;;;;;3.97;3.50;;;4.80;87.20;;;;;;5032501;28;20033;-59
2022/11/27 09:05:26;;;;;;;4.13;3.53;;;4.80;87.10;;;;;;5032074;28;20025;-59
2022/11/27 09:07:51;;;;;;;4.28;3.78;;;4.80;87.30;;;;;;5032462;28;20523;-58
2022/11/27 09:10:18;;;;;;;5.68;3.95;;;4.80;87.10;;;;;;5032325;28;20037;-58
2022/11/27 09:12:43;;;;;;;5.88;3.78;;;4.90;87.20;;;;;;5030052;28;20399;-58
2022/11/27 09:15:10;;;;;;;4.20;3.80;;;4.80;87.10;;;;;;5031972;28;20018;-59
2022/11/27 09:17:36;;;;;;;4.75;4.20;;;4.90;87.10;;;;;;5032178;28;20056;-59
2022/11/27 09:20:03;;;;;;;5.50;4.50;;;4.90;87.10;;;;;;5031872;28;20029;-59
2022/11/27 09:22:28;;;;;;;4.60;4.20;;;4.90;87.10;;;;;;5032181;28;20033;-57
2022/11/27 09:24:54;;;;;;;6.10;4.82;;;5.00;87.00;;;;;;5031917;28;20071;-58
2022/11/27 09:27:19;;;;;;;5.70;4.90;;;5.00;86.80;;;;;;5031090;28;20469;-57
2022/11/27 09:29:45;;;;;;;4.70;4.20;;;5.10;86.80;;;;;;5031827;28;20022;-58
2022/11/27 09:32:11;;;;;;;5.65;4.35;;;5.10;86.60;;;;;;5032447;28;20079;-62
2022/11/27 09:34:36;;;;;;;5.03;4.35;;;5.10;86.60;;;;;;5035931;28;20036;-57
2022/11/27 09:37:03;;;;;;;4.72;4.10;;;5.10;86.60;;;;;;5035234;28;20124;-60
2022/11/27 09:39:32;;;;;;;5.25;4.15;;;5.10;86.60;;;;;;5036184;28;20052;-57
2022/11/27 09:42:00;;;;;;;4.90;4.10;;;5.10;86.50;;;;;;5036123;28;20034;-58
2022/11/27 09:44:37;;;;;;;5.10;4.22;;;5.10;86.60;;;;;;5035431;28;20034;-60
2022/11/27 09:47:34;;;;;;;5.78;4.63;;;5.20;86.50;;;;;;5036083;28;20109;-60
2022/11/27 09:50:13;;;;;;;5.45;4.63;;;5.10;86.20;;;;;;5032903;28;20247;-57
2022/11/27 09:52:48;;;;;;;5.25;4.35;;;5.20;86.20;;;;;;5035277;28;20029;-60
2022/11/27 09:55:25;;;;;;;5.70;4.38;;;5.10;86.20;;;;;;5034819;28;20033;-60
2022/11/27 09:58:16;;;;;;;4.60;3.92;;;5.10;86.00;;;;;;5035263;28;20112;-57
2022/11/27 10:00:46;;;;;;;6.05;4.32;;;5.10;85.70;;;;;;5033066;28;20014;-57
2022/11/27 10:03:20;;;;;;;4.82;4.00;;;5.20;85.90;;;;;;5034306;28;20072;-58
2022/11/27 10:06:04;;;;;;;5.03;4.40;;;5.10;86.00;;;;;;5035377;28;20030;-57
2022/11/27 10:08:49;;;;;;;4.93;4.43;;;5.20;85.90;;;;;;5035687;28;20033;-57
2022/11/27 10:11:27;;;;;;;4.97;4.47;;;5.10;86.00;;;;;;5035342;28;20057;-58
2022/11/27 10:14:23;;;;;;;5.38;4.30;;;5.10;85.90;;;;;;5034582;28;20021;-58
2022/11/27 10:17:01;;;;;;;4.28;3.88;;;5.10;85.90;;;;;;5035425;28;20144;-56
2022/11/27 10:19:48;;;;;;;4.75;4.25;;;5.10;85.80;;;;;;5033264;28;20030;-58
2022/11/27 10:22:23;;;;;;;4.35;3.83;;;5.10;85.70;;;;;;5027762;28;20084;-58
2022/11/27 10:24:54;;;;;;;4.65;3.97;;;5.10;85.90;;;;;;5034617;28;20060;-58
2022/11/27 10:27:43;;;;;;;4.25;3.85;;;5.10;85.90;;;;;;5033648;28;20481;-58
2022/11/27 10:30:20;;;;;;;5.03;4.10;;;5.20;85.90;;;;;;5033820;28;20018;-58
2022/11/27 10:32:51;;;;;;;4.90;4.40;;;5.20;85.80;;;;;;5016418;28;20060;-58
2022/11/27 10:35:19;;;;;;;5.03;4.50;;;5.20;85.80;;;;;;5035220;28;20069;-58
2022/11/27 10:37:52;;;;;;;5.53;4.28;;;5.20;85.90;;;;;;5033994;28;20045;-58
2022/11/27 10:40:33;;;;;;;4.70;4.20;;;5.20;85.90;;;;;;5035022;28;20021;-58
2022/11/27 10:43:16;;;;;;;5.45;4.30;;;5.30;85.60;;;;;;5035041;28;20048;-58
2022/11/27 10:45:53;;;;;;;4.65;3.97;;;5.30;86.10;;;;;;5032797;28;20033;-57
2022/11/27 10:48:19;;;;;;;5.15;4.00;;;5.30;85.40;;;;;;5034927;28;20018;-56
2022/11/27 10:50:45;;;;;;;4.55;4.10;;;5.30;85.60;;;;;;5034571;28;20519;-57
2022/11/27 10:53:15;;;;;;;4.70;4.07;;;5.30;85.40;;;;;;5035024;28;20025;-56
2022/11/27 10:55:55;;;;;;;5.40;4.45;;;5.30;85.20;;;;;;5032159;28;20044;-59
2022/11/27 10:58:40;;;;;;;4.70;4.15;;;5.30;85.10;;;;;;5033737;28;20120;-57
2022/11/27 11:01:08;;;;;;;5.18;4.45;;;5.30;85.00;;;;;;5028815;28;20444;-57
2022/11/27 11:03:35;;;;;;;4.63;4.22;;;5.20;84.80;;;;;;5034332;28;20025;-58
2022/11/27 11:06:05;;;;;;;5.30;4.55;;;5.20;85.00;;;;;;5034002;28;20029;-59
2022/11/27 11:08:33;;;;;;;4.75;4.25;;;5.20;85.10;;;;;;5034300;28;20127;-57
2022/11/27 11:11:02;;;;;;;4.85;3.90;;;5.20;85.10;;;;;;5034504;28;20022;-58
2022/11/27 11:13:40;;;;;;;4.55;4.07;;;5.20;85.30;;;;;;5034389;28;20029;-57
2022/11/27 11:16:20;;;;;;;3.97;3.58;;;5.20;85.20;;;;;;5033725;28;20060;-57
2022/11/27 11:18:48;;;;;;;4.55;3.80;;;5.20;85.40;;;;;;5032728;28;20030;-56
2022/11/27 11:21:33;;;;;;;4.60;3.92;;;5.20;85.50;;;;;;5034535;28;20405;-57
2022/11/27 11:24:02;;;;;;;4.10;3.47;;;5.30;85.20;;;;;;5023389;28;20025;-58
2022/11/27 11:26:32;;;;;;;3.85;3.45;;;5.30;85.40;;;;;;5032932;28;20092;-57
2022/11/27 11:29:01;;;;;;;4.43;3.92;;;5.30;85.50;;;;;;5033918;28;20029;-57
2022/11/27 11:31:33;;;;;;;3.88;3.45;;;5.30;85.50;;;;;;5031851;28;20025;-57
2022/11/27 11:34:02;;;;;;;4.35;3.45;;;5.30;86.10;;;;;;5034418;28;20025;-57
2022/11/27 11:36:29;;;;;;;3.95;3.40;;;5.30;85.50;;;;;;5033610;28;20037;-56
2022/11/27 11:38:55;;;;;;;4.43;3.85;;;5.30;85.50;;;;;;5033860;28;20033;-57
2022/11/27 11:41:23;;;;;;;3.65;3.35;;;5.30;85.30;;;;;;5033858;28;20033;-58
2022/11/27 11:44:19;;;;;;;3.65;3.33;;;5.30;85.30;;;;;;5033356;28;20037;-57
2022/11/27 11:46:53;;;;;;;3.35;3.05;;;5.30;85.00;;;;;;5033465;28;20041;-57
2022/11/27 11:49:32;;;;;;;3.38;3.05;;;5.30;85.20;;;;;;5031152;28;20417;-56
2022/11/27 11:52:03;;;;;;;3.75;3.35;;;5.30;85.10;;;;;;5030621;28;20500;-57
2022/11/27 11:54:48;;;;;;;3.38;3.08;;;5.30;85.20;;;;;;5031053;28;20021;-57
2022/11/27 11:57:30;;;;;;;3.58;3.17;;;5.30;85.30;;;;;;5026300;28;20022;-58
2022/11/27 12:00:08;;;;;;;4.18;3.58;;;5.30;85.30;;;;;;5032066;28;20030;-57
2022/11/27 12:03:03;;;;;;;3.78;3.40;;;5.30;85.20;;;;;;5031156;28;20057;-57
2022/11/27 12:05:35;;;;;;;3.78;3.38;;;5.30;84.90;;;;;;5033452;28;20052;-58
2022/11/27 12:08:20;;;;;;;3.38;3.08;;;5.30;85.10;;;;;;5033405;28;20380;-57
2022/11/27 12:11:14;;;;;;;3.45;3.15;;;5.30;85.10;;;;;;5033051;28;20064;-56
2022/11/27 12:14:17;;;;;;;3.80;3.30;;;5.30;85.00;;;;;;5032684;28;20025;-57
2022/11/27 12:16:44;;;;;;;3.92;3.25;;;5.30;85.00;;;;;;5033079;28;20057;-57
2022/11/27 12:19:16;;;;;;;4.93;3.30;;;5.30;85.20;;;;;;5032572;28;20025;-57
2022/11/27 12:22:12;;;;;;;3.80;3.40;;;5.30;85.30;;;;;;5033066;28;20041;-58
2022/11/27 12:25:15;;;;;;;3.10;2.80;;;5.30;84.90;;;;;;5032152;28;20469;-57
2022/11/27 12:28:04;;;;;;;3.90;3.10;;;5.30;84.80;;;;;;5031445;28;20071;-57
2022/11/27 12:30:45;;;;;;;3.63;3.10;;;5.40;85.00;;;;;;5022711;28;20469;-57
2022/11/27 12:33:37;;;;;;;3.50;3.00;;;5.40;84.90;;;;;;5031266;28;20030;-57
2022/11/27 12:36:34;;;;;;;3.60;3.22;;;5.40;84.90;;;;;;5032184;28;20056;-57
2022/11/27 12:39:09;;;;;;;3.17;2.88;;;5.40;84.90;;;;;;5025139;28;20063;-57
2022/11/27 12:41:41;;;;;;;3.10;2.80;;;5.40;84.90;;;;;;5020459;28;20108;-57
2022/11/27 12:44:29;;;;;;;2.90;2.70;;;5.50;85.00;;;;;;5032501;28;20030;-57
2022/11/27 12:46:58;;;;;;;3.15;2.63;;;5.50;84.60;;;;;;5032602;28;20061;-58
2022/11/27 12:49:49;;;;;;;2.72;2.53;;;5.50;84.70;;;;;;5030686;28;20025;-58
2022/11/27 12:52:43;;;;;;;2.70;2.50;;;5.50;84.60;;;;;;5032208;28;20033;-57
2022/11/27 12:55:18;;;;;;;2.65;2.45;;;5.50;84.60;;;;;;5029168;28;20312;-58
2022/11/27 12:58:02;;;;;;;2.80;2.60;;;5.50;84.80;;;;;;5029127;28;20025;-57
2022/11/27 13:00:31;;;;;;;3.25;2.95;;;5.50;84.70;;;;;;5025354;28;20025;-57
2022/11/27 13:03:19;;;;;;;3.70;3.10;;;5.40;84.70;;;;;;5029266;28;20392;-57
2022/11/27 13:06:04;;;;;;;3.50;2.83;;;5.40;84.70;;;;;;5030118;28;20026;-56
2022/11/27 13:08:39;;;;;;;2.83;2.60;;;5.40;84.70;;;;;;5029825;28;20571;-57
2022/11/27 13:11:09;;;;;;;2.90;2.60;;;5.40;84.90;;;;;;5029584;28;20030;-58
2022/11/27 13:13:37;;;;;;;2.70;2.50;;;5.30;85.00;;;;;;5029720;28;20022;-56
2022/11/27 13:16:05;;;;;;;2.80;2.60;;;5.30;85.00;;;;;;5030439;28;20435;-58